YQZ weather

Quesnel Airport
Quesnel, British Columbia, Canada

Public forecast

Using degrees Celsius for public forecast. Weather courtesy of forecast.io.

METAR (pilot weather report)

Retrieved 2019/08/24 16:00 UTC (58 minutes ago):

CYQZ 241600Z AUTO 19004KT 9SM BKN100 BKN130 14/12 A2982 RMK SLP107 DENSITY ALT 2100FT

TAF (pilot weather forecast)

Retrieved 2019/08/24 12:39 UTC (4 hours ago):

TAF CYQZ 241138Z 2412/2424 VRB03KT P6SM FEW010 BKN080 TEMPO 2412/2416 4SM BR BKN010 PROB30 2412/2415 1SM BR FM241600 VRB03KT P6SM SCT030 BKN060 TEMPO 2416/2424 P6SM -SHRA BKN030 BECMG 2419/2421 32006KT RMK FCST BASED ON AUTO OBS. NXT FCST BY 241900Z